sensor_id;sensor_type;location;lat;lon;timestamp;P1;durP1;ratioP1;P2;durP2;ratioP2
76125;SDS011;65174;48.138;21.002;2023-02-12T00:00:17;88.68;;;38.67;;
76125;SDS011;65174;48.138;21.002;2023-02-12T00:03:19;92.88;;;39.33;;
76125;SDS011;65174;48.138;21.002;2023-02-12T00:06:21;93.93;;;41.65;;
76125;SDS011;65174;48.138;21.002;2023-02-12T00:09:24;101.60;;;45.63;;
76125;SDS011;65174;48.138;21.002;2023-02-12T00:12:26;99.07;;;45.47;;
76125;SDS011;65174;48.138;21.002;2023-02-12T00:15:27;102.28;;;45.30;;
76125;SDS011;65174;48.138;21.002;2023-02-12T00:18:30;101.38;;;44.35;;
76125;SDS011;65174;48.138;21.002;2023-02-12T00:21:32;96.68;;;41.65;;
76125;SDS011;65174;48.138;21.002;2023-02-12T00:24:34;97.07;;;41.73;;
76125;SDS011;65174;48.138;21.002;2023-02-12T00:27:36;88.18;;;38.63;;
76125;SDS011;65174;48.138;21.002;2023-02-12T00:30:38;93.60;;;39.20;;
76125;SDS011;65174;48.138;21.002;2023-02-12T00:33:40;91.18;;;39.25;;
76125;SDS011;65174;48.138;21.002;2023-02-12T00:36:42;84.90;;;37.10;;
76125;SDS011;65174;48.138;21.002;2023-02-12T00:39:44;91.47;;;42.30;;
76125;SDS011;65174;48.138;21.002;2023-02-12T00:42:46;95.78;;;40.97;;
76125;SDS011;65174;48.138;21.002;2023-02-12T00:45:48;94.95;;;42.20;;
76125;SDS011;65174;48.138;21.002;2023-02-12T00:48:50;87.65;;;37.28;;
76125;SDS011;65174;48.138;21.002;2023-02-12T00:51:53;103.68;;;42.85;;
76125;SDS011;65174;48.138;21.002;2023-02-12T00:54:55;95.97;;;41.70;;
76125;SDS011;65174;48.138;21.002;2023-02-12T00:57:58;96.25;;;41.38;;
76125;SDS011;65174;48.138;21.002;2023-02-12T01:01:02;99.45;;;42.00;;
76125;SDS011;65174;48.138;21.002;2023-02-12T01:04:04;95.97;;;42.00;;
76125;SDS011;65174;48.138;21.002;2023-02-12T01:07:06;102.78;;;43.03;;
76125;SDS011;65174;48.138;21.002;2023-02-12T01:10:09;97.97;;;41.87;;
76125;SDS011;65174;48.138;21.002;2023-02-12T01:13:12;90.60;;;39.65;;
76125;SDS011;65174;48.138;21.002;2023-02-12T01:16:16;91.78;;;39.45;;
76125;SDS011;65174;48.138;21.002;2023-02-12T01:19:20;82.07;;;35.75;;
76125;SDS011;65174;48.138;21.002;2023-02-12T01:22:22;87.25;;;38.42;;
76125;SDS011;65174;48.138;21.002;2023-02-12T01:25:24;93.60;;;38.47;;
76125;SDS011;65174;48.138;21.002;2023-02-12T01:28:25;76.90;;;35.42;;
76125;SDS011;65174;48.138;21.002;2023-02-12T01:31:29;77.43;;;35.95;;
76125;SDS011;65174;48.138;21.002;2023-02-12T01:57:14;72.13;;;31.95;;
76125;SDS011;65174;48.138;21.002;2023-02-12T02:16:24;80.50;;;36.03;;
76125;SDS011;65174;48.138;21.002;2023-02-12T02:21:05;80.07;;;35.95;;
76125;SDS011;65174;48.138;21.002;2023-02-12T02:53:26;80.88;;;36.83;;
76125;SDS011;65174;48.138;21.002;2023-02-12T02:58:37;89.38;;;38.55;;
76125;SDS011;65174;48.138;21.002;2023-02-12T03:01:48;87.47;;;37.83;;
76125;SDS011;65174;48.138;21.002;2023-02-12T03:05:07;91.32;;;40.25;;
76125;SDS011;65174;48.138;21.002;2023-02-12T03:08:14;95.35;;;41.25;;
76125;SDS011;65174;48.138;21.002;2023-02-12T03:11:26;95.45;;;41.30;;
76125;SDS011;65174;48.138;21.002;2023-02-12T03:14:36;91.82;;;40.70;;
76125;SDS011;65174;48.138;21.002;2023-02-12T03:17:43;93.80;;;40.33;;
76125;SDS011;65174;48.138;21.002;2023-02-12T03:20:54;98.88;;;43.15;;
76125;SDS011;65174;48.138;21.002;2023-02-12T03:24:03;100.65;;;44.58;;
76125;SDS011;65174;48.138;21.002;2023-02-12T03:27:17;100.82;;;44.28;;
76125;SDS011;65174;48.138;21.002;2023-02-12T03:30:24;104.45;;;43.30;;
76125;SDS011;65174;48.138;21.002;2023-02-12T03:39:55;94.90;;;43.70;;
76125;SDS011;65174;48.138;21.002;2023-02-12T03:43:06;92.07;;;41.50;;
76125;SDS011;65174;48.138;21.002;2023-02-12T03:46:37;93.82;;;41.05;;
76125;SDS011;65174;48.138;21.002;2023-02-12T03:49:47;99.70;;;41.97;;
76125;SDS011;65174;48.138;21.002;2023-02-12T03:53:10;99.55;;;42.15;;
76125;SDS011;65174;48.138;21.002;2023-02-12T03:56:21;105.03;;;46.17;;
76125;SDS011;65174;48.138;21.002;2023-02-12T03:59:29;107.38;;;44.70;;
76125;SDS011;65174;48.138;21.002;2023-02-12T04:02:32;106.43;;;47.35;;
76125;SDS011;65174;48.138;21.002;2023-02-12T04:05:34;100.20;;;44.53;;
76125;SDS011;65174;48.138;21.002;2023-02-12T04:08:36;105.85;;;47.42;;
76125;SDS011;65174;48.138;21.002;2023-02-12T04:19:03;100.47;;;43.92;;
76125;SDS011;65174;48.138;21.002;2023-02-12T04:22:18;101.67;;;44.27;;
76125;SDS011;65174;48.138;21.002;2023-02-12T04:39:00;105.17;;;45.80;;
76125;SDS011;65174;48.138;21.002;2023-02-12T04:42:07;104.63;;;44.58;;
76125;SDS011;65174;48.138;21.002;2023-02-12T04:45:10;106.82;;;44.20;;
76125;SDS011;65174;48.138;21.002;2023-02-12T04:48:14;118.75;;;47.80;;
76125;SDS011;65174;48.138;21.002;2023-02-12T04:51:16;111.80;;;46.17;;
76125;SDS011;65174;48.138;21.002;2023-02-12T04:54:18;100.07;;;43.17;;
76125;SDS011;65174;48.138;21.002;2023-02-12T04:57:21;118.47;;;47.65;;
76125;SDS011;65174;48.138;21.002;2023-02-12T05:00:23;117.53;;;48.63;;
76125;SDS011;65174;48.138;21.002;2023-02-12T05:03:25;119.75;;;46.67;;
76125;SDS011;65174;48.138;21.002;2023-02-12T05:06:27;98.10;;;43.00;;
76125;SDS011;65174;48.138;21.002;2023-02-12T05:09:31;104.80;;;43.60;;
76125;SDS011;65174;48.138;21.002;2023-02-12T05:12:32;104.20;;;45.35;;
76125;SDS011;65174;48.138;21.002;2023-02-12T05:15:37;114.10;;;48.83;;
76125;SDS011;65174;48.138;21.002;2023-02-12T05:18:39;147.25;;;57.45;;
76125;SDS011;65174;48.138;21.002;2023-02-12T05:21:41;104.75;;;44.42;;
76125;SDS011;65174;48.138;21.002;2023-02-12T05:24:44;111.33;;;45.37;;
76125;SDS011;65174;48.138;21.002;2023-02-12T05:27:47;108.47;;;44.80;;
76125;SDS011;65174;48.138;21.002;2023-02-12T05:30:49;99.90;;;43.28;;
76125;SDS011;65174;48.138;21.002;2023-02-12T05:33:51;104.00;;;43.20;;
76125;SDS011;65174;48.138;21.002;2023-02-12T05:36:53;108.28;;;44.58;;
76125;SDS011;65174;48.138;21.002;2023-02-12T05:39:55;105.00;;;43.33;;
76125;SDS011;65174;48.138;21.002;2023-02-12T05:42:57;103.07;;;44.58;;
76125;SDS011;65174;48.138;21.002;2023-02-12T05:46:00;110.18;;;46.47;;
76125;SDS011;65174;48.138;21.002;2023-02-12T05:49:03;101.18;;;45.08;;
76125;SDS011;65174;48.138;21.002;2023-02-12T05:52:05;103.72;;;44.20;;
76125;SDS011;65174;48.138;21.002;2023-02-12T05:55:07;98.40;;;41.93;;
76125;SDS011;65174;48.138;21.002;2023-02-12T05:58:09;117.32;;;47.17;;
76125;SDS011;65174;48.138;21.002;2023-02-12T06:01:15;96.82;;;41.35;;
76125;SDS011;65174;48.138;21.002;2023-02-12T06:04:23;96.85;;;44.13;;
76125;SDS011;65174;48.138;21.002;2023-02-12T06:07:27;92.60;;;40.78;;
76125;SDS011;65174;48.138;21.002;2023-02-12T06:10:29;87.10;;;38.70;;
76125;SDS011;65174;48.138;21.002;2023-02-12T06:13:31;90.07;;;38.53;;
76125;SDS011;65174;48.138;21.002;2023-02-12T06:16:34;85.20;;;38.00;;
76125;SDS011;65174;48.138;21.002;2023-02-12T06:19:36;90.75;;;38.72;;
76125;SDS011;65174;48.138;21.002;2023-02-12T06:22:38;93.85;;;41.20;;
76125;SDS011;65174;48.138;21.002;2023-02-12T06:25:40;94.93;;;41.37;;
76125;SDS011;65174;48.138;21.002;2023-02-12T06:28:42;95.50;;;40.90;;
76125;SDS011;65174;48.138;21.002;2023-02-12T06:31:44;93.65;;;40.08;;
76125;SDS011;65174;48.138;21.002;2023-02-12T06:34:46;95.38;;;42.25;;
76125;SDS011;65174;48.138;21.002;2023-02-12T06:37:49;95.47;;;40.13;;
76125;SDS011;65174;48.138;21.002;2023-02-12T06:40:50;95.17;;;40.97;;
76125;SDS011;65174;48.138;21.002;2023-02-12T06:43:52;98.25;;;41.33;;
76125;SDS011;65174;48.138;21.002;2023-02-12T06:46:54;95.38;;;43.17;;
76125;SDS011;65174;48.138;21.002;2023-02-12T06:49:58;98.53;;;43.40;;
76125;SDS011;65174;48.138;21.002;2023-02-12T06:53:00;99.00;;;44.47;;
76125;SDS011;65174;48.138;21.002;2023-02-12T06:56:03;118.53;;;48.70;;
76125;SDS011;65174;48.138;21.002;2023-02-12T06:59:06;116.57;;;46.70;;
76125;SDS011;65174;48.138;21.002;2023-02-12T07:02:09;110.28;;;46.70;;
76125;SDS011;65174;48.138;21.002;2023-02-12T07:05:12;94.25;;;42.95;;
76125;SDS011;65174;48.138;21.002;2023-02-12T07:08:14;96.07;;;38.88;;
76125;SDS011;65174;48.138;21.002;2023-02-12T07:11:16;97.10;;;42.70;;
76125;SDS011;65174;48.138;21.002;2023-02-12T07:14:19;103.43;;;42.78;;
76125;SDS011;65174;48.138;21.002;2023-02-12T07:17:21;102.20;;;43.67;;
76125;SDS011;65174;48.138;21.002;2023-02-12T07:20:22;108.32;;;44.60;;
76125;SDS011;65174;48.138;21.002;2023-02-12T07:23:24;107.97;;;45.85;;
76125;SDS011;65174;48.138;21.002;2023-02-12T07:26:26;89.07;;;37.73;;
76125;SDS011;65174;48.138;21.002;2023-02-12T08:02:50;91.97;;;40.20;;
76125;SDS011;65174;48.138;21.002;2023-02-12T08:05:54;70.10;;;30.70;;
76125;SDS011;65174;48.138;21.002;2023-02-12T08:08:58;82.45;;;35.63;;
76125;SDS011;65174;48.138;21.002;2023-02-12T08:12:02;78.97;;;37.77;;
76125;SDS011;65174;48.138;21.002;2023-02-12T08:15:04;99.80;;;40.00;;
76125;SDS011;65174;48.138;21.002;2023-02-12T08:18:06;93.97;;;42.15;;
76125;SDS011;65174;48.138;21.002;2023-02-12T08:21:09;100.18;;;45.38;;
76125;SDS011;65174;48.138;21.002;2023-02-12T08:24:13;93.18;;;42.60;;
76125;SDS011;65174;48.138;21.002;2023-02-12T08:27:15;86.97;;;38.33;;
76125;SDS011;65174;48.138;21.002;2023-02-12T08:30:17;89.18;;;41.03;;
76125;SDS011;65174;48.138;21.002;2023-02-12T08:33:19;194.70;;;77.72;;
76125;SDS011;65174;48.138;21.002;2023-02-12T08:36:28;105.10;;;48.72;;
76125;SDS011;65174;48.138;21.002;2023-02-12T08:39:32;100.32;;;46.05;;
76125;SDS011;65174;48.138;21.002;2023-02-12T08:42:34;109.30;;;48.57;;
76125;SDS011;65174;48.138;21.002;2023-02-12T08:45:36;97.20;;;41.72;;
76125;SDS011;65174;48.138;21.002;2023-02-12T08:48:43;88.32;;;37.28;;
76125;SDS011;65174;48.138;21.002;2023-02-12T08:51:48;101.53;;;42.97;;
76125;SDS011;65174;48.138;21.002;2023-02-12T08:54:52;89.00;;;40.47;;
76125;SDS011;65174;48.138;21.002;2023-02-12T08:57:54;84.40;;;38.20;;
76125;SDS011;65174;48.138;21.002;2023-02-12T09:00:58;60.55;;;26.70;;
76125;SDS011;65174;48.138;21.002;2023-02-12T09:04:00;41.80;;;20.23;;
76125;SDS011;65174;48.138;21.002;2023-02-12T09:07:02;62.20;;;28.90;;
76125;SDS011;65174;48.138;21.002;2023-02-12T09:10:04;66.90;;;29.25;;
76125;SDS011;65174;48.138;21.002;2023-02-12T09:13:07;52.80;;;23.53;;
76125;SDS011;65174;48.138;21.002;2023-02-12T09:16:10;51.58;;;23.65;;
76125;SDS011;65174;48.138;21.002;2023-02-12T09:19:13;34.45;;;18.02;;
76125;SDS011;65174;48.138;21.002;2023-02-12T09:22:16;36.03;;;17.23;;
76125;SDS011;65174;48.138;21.002;2023-02-12T09:25:18;35.97;;;17.65;;
76125;SDS011;65174;48.138;21.002;2023-02-12T09:28:20;32.93;;;17.93;;
76125;SDS011;65174;48.138;21.002;2023-02-12T10:39:47;8.38;;;3.90;;
76125;SDS011;65174;48.138;21.002;2023-02-12T10:42:55;11.13;;;3.77;;
76125;SDS011;65174;48.138;21.002;2023-02-12T10:45:58;7.38;;;4.15;;
76125;SDS011;65174;48.138;21.002;2023-02-12T10:49:00;8.43;;;4.30;;
76125;SDS011;65174;48.138;21.002;2023-02-12T10:52:16;11.98;;;4.38;;
76125;SDS011;65174;48.138;21.002;2023-02-12T10:55:31;6.25;;;2.78;;
76125;SDS011;65174;48.138;21.002;2023-02-12T10:58:35;6.40;;;3.77;;
76125;SDS011;65174;48.138;21.002;2023-02-12T11:01:37;10.32;;;5.57;;
76125;SDS011;65174;48.138;21.002;2023-02-12T11:04:42;6.93;;;4.18;;
76125;SDS011;65174;48.138;21.002;2023-02-12T11:07:48;5.55;;;3.35;;
76125;SDS011;65174;48.138;21.002;2023-02-12T11:10:51;9.25;;;4.88;;
76125;SDS011;65174;48.138;21.002;2023-02-12T11:13:55;7.10;;;3.90;;
76125;SDS011;65174;48.138;21.002;2023-02-12T11:17:00;6.32;;;4.25;;
76125;SDS011;65174;48.138;21.002;2023-02-12T11:20:05;11.18;;;5.75;;
76125;SDS011;65174;48.138;21.002;2023-02-12T11:23:24;7.95;;;4.68;;
76125;SDS011;65174;48.138;21.002;2023-02-12T11:26:31;12.07;;;6.47;;
76125;SDS011;65174;48.138;21.002;2023-02-12T11:29:34;13.67;;;5.57;;
76125;SDS011;65174;48.138;21.002;2023-02-12T11:32:36;10.98;;;5.57;;
76125;SDS011;65174;48.138;21.002;2023-02-12T11:35:46;11.55;;;5.15;;
76125;SDS011;65174;48.138;21.002;2023-02-12T11:38:52;7.70;;;4.00;;
76125;SDS011;65174;48.138;21.002;2023-02-12T11:45:05;9.43;;;4.33;;
76125;SDS011;65174;48.138;21.002;2023-02-12T11:48:14;7.35;;;4.78;;
76125;SDS011;65174;48.138;21.002;2023-02-12T11:51:28;13.18;;;4.90;;
76125;SDS011;65174;48.138;21.002;2023-02-12T11:54:38;5.32;;;2.75;;
76125;SDS011;65174;48.138;21.002;2023-02-12T11:57:44;8.75;;;3.13;;
76125;SDS011;65174;48.138;21.002;2023-02-12T12:00:52;11.30;;;4.40;;
76125;SDS011;65174;48.138;21.002;2023-02-12T12:07:19;11.13;;;3.88;;
76125;SDS011;65174;48.138;21.002;2023-02-12T12:10:38;8.52;;;4.15;;
76125;SDS011;65174;48.138;21.002;2023-02-12T12:14:26;5.05;;;3.05;;
76125;SDS011;65174;48.138;21.002;2023-02-12T12:17:55;9.80;;;4.13;;
76125;SDS011;65174;48.138;21.002;2023-02-12T12:21:33;7.13;;;4.00;;
76125;SDS011;65174;48.138;21.002;2023-02-12T12:24:39;8.55;;;4.45;;
76125;SDS011;65174;48.138;21.002;2023-02-12T12:34:38;9.57;;;4.90;;
76125;SDS011;65174;48.138;21.002;2023-02-12T12:37:53;9.95;;;4.32;;
76125;SDS011;65174;48.138;21.002;2023-02-12T12:41:08;8.85;;;4.40;;
76125;SDS011;65174;48.138;21.002;2023-02-12T13:01:03;11.50;;;5.90;;
76125;SDS011;65174;48.138;21.002;2023-02-12T13:04:31;10.75;;;5.85;;
76125;SDS011;65174;48.138;21.002;2023-02-12T13:11:08;9.32;;;5.45;;
76125;SDS011;65174;48.138;21.002;2023-02-12T13:21:03;8.85;;;5.00;;
76125;SDS011;65174;48.138;21.002;2023-02-12T13:27:29;14.93;;;5.53;;
76125;SDS011;65174;48.138;21.002;2023-02-12T13:30:37;10.68;;;4.88;;
76125;SDS011;65174;48.138;21.002;2023-02-12T13:33:49;8.70;;;4.68;;
76125;SDS011;65174;48.138;21.002;2023-02-12T13:36:55;32.97;;;12.25;;
76125;SDS011;65174;48.138;21.002;2023-02-12T13:40:00;18.20;;;6.80;;
76125;SDS011;65174;48.138;21.002;2023-02-12T13:46:10;10.27;;;4.60;;
76125;SDS011;65174;48.138;21.002;2023-02-12T13:49:31;7.10;;;4.20;;
76125;SDS011;65174;48.138;21.002;2023-02-12T13:56:24;5.27;;;3.37;;
76125;SDS011;65174;48.138;21.002;2023-02-12T14:05:39;7.65;;;4.38;;
76125;SDS011;65174;48.138;21.002;2023-02-12T14:08:44;5.25;;;3.55;;
76125;SDS011;65174;48.138;21.002;2023-02-12T14:11:51;5.40;;;2.63;;
76125;SDS011;65174;48.138;21.002;2023-02-12T14:14:55;7.25;;;4.40;;
76125;SDS011;65174;48.138;21.002;2023-02-12T14:21:34;10.15;;;4.65;;
76125;SDS011;65174;48.138;21.002;2023-02-12T14:31:28;9.48;;;5.32;;
76125;SDS011;65174;48.138;21.002;2023-02-12T14:37:36;7.50;;;4.15;;
76125;SDS011;65174;48.138;21.002;2023-02-12T14:43:45;14.30;;;6.40;;
76125;SDS011;65174;48.138;21.002;2023-02-12T14:47:03;16.83;;;6.55;;
76125;SDS011;65174;48.138;21.002;2023-02-12T14:50:16;13.07;;;6.68;;
76125;SDS011;65174;48.138;21.002;2023-02-12T14:53:28;11.95;;;6.07;;
76125;SDS011;65174;48.138;21.002;2023-02-12T14:56:43;11.18;;;5.85;;
76125;SDS011;65174;48.138;21.002;2023-02-12T14:59:48;11.47;;;5.73;;
76125;SDS011;65174;48.138;21.002;2023-02-12T15:02:54;12.50;;;6.35;;
76125;SDS011;65174;48.138;21.002;2023-02-12T15:06:03;8.27;;;4.95;;
76125;SDS011;65174;48.138;21.002;2023-02-12T15:09:15;12.88;;;5.75;;
76125;SDS011;65174;48.138;21.002;2023-02-12T15:12:29;15.20;;;7.10;;
76125;SDS011;65174;48.138;21.002;2023-02-12T15:15:45;20.87;;;8.33;;
76125;SDS011;65174;48.138;21.002;2023-02-12T15:18:57;16.25;;;7.15;;
76125;SDS011;65174;48.138;21.002;2023-02-12T15:25:26;10.50;;;5.32;;
76125;SDS011;65174;48.138;21.002;2023-02-12T15:28:31;9.25;;;5.25;;
76125;SDS011;65174;48.138;21.002;2023-02-12T15:31:37;9.23;;;5.33;;
76125;SDS011;65174;48.138;21.002;2023-02-12T15:34:39;8.07;;;4.60;;
76125;SDS011;65174;48.138;21.002;2023-02-12T15:37:43;9.32;;;5.00;;
76125;SDS011;65174;48.138;21.002;2023-02-12T15:40:54;9.52;;;4.72;;
76125;SDS011;65174;48.138;21.002;2023-02-12T15:44:00;9.60;;;5.60;;
76125;SDS011;65174;48.138;21.002;2023-02-12T15:47:19;10.07;;;5.67;;
76125;SDS011;65174;48.138;21.002;2023-02-12T15:50:25;9.15;;;6.22;;
76125;SDS011;65174;48.138;21.002;2023-02-12T15:53:28;9.55;;;6.00;;
76125;SDS011;65174;48.138;21.002;2023-02-12T15:56:32;12.00;;;5.97;;
76125;SDS011;65174;48.138;21.002;2023-02-12T15:59:37;13.68;;;6.80;;
76125;SDS011;65174;48.138;21.002;2023-02-12T16:02:41;15.90;;;8.67;;
76125;SDS011;65174;48.138;21.002;2023-02-12T16:05:43;9.90;;;5.50;;
76125;SDS011;65174;48.138;21.002;2023-02-12T16:08:47;13.63;;;5.97;;
76125;SDS011;65174;48.138;21.002;2023-02-12T16:11:53;13.77;;;6.55;;
76125;SDS011;65174;48.138;21.002;2023-02-12T16:14:58;9.88;;;6.10;;
76125;SDS011;65174;48.138;21.002;2023-02-12T16:18:03;8.93;;;5.67;;
76125;SDS011;65174;48.138;21.002;2023-02-12T16:21:12;9.35;;;5.60;;
76125;SDS011;65174;48.138;21.002;2023-02-12T16:24:26;8.55;;;5.50;;
76125;SDS011;65174;48.138;21.002;2023-02-12T16:27:31;10.73;;;5.93;;
76125;SDS011;65174;48.138;21.002;2023-02-12T16:30:36;11.57;;;6.53;;
76125;SDS011;65174;48.138;21.002;2023-02-12T16:36:46;12.85;;;7.10;;
76125;SDS011;65174;48.138;21.002;2023-02-12T16:42:55;14.90;;;7.32;;
76125;SDS011;65174;48.138;21.002;2023-02-12T16:46:04;13.43;;;8.20;;
76125;SDS011;65174;48.138;21.002;2023-02-12T16:49:12;16.93;;;8.93;;
76125;SDS011;65174;48.138;21.002;2023-02-12T16:52:18;11.57;;;7.05;;
76125;SDS011;65174;48.138;21.002;2023-02-12T16:55:28;12.75;;;6.40;;
76125;SDS011;65174;48.138;21.002;2023-02-12T16:58:31;13.07;;;6.85;;
76125;SDS011;65174;48.138;21.002;2023-02-12T17:01:34;12.82;;;7.05;;
76125;SDS011;65174;48.138;21.002;2023-02-12T17:04:37;12.37;;;7.17;;
76125;SDS011;65174;48.138;21.002;2023-02-12T17:07:39;15.32;;;7.88;;
76125;SDS011;65174;48.138;21.002;2023-02-12T17:10:41;14.57;;;7.55;;
76125;SDS011;65174;48.138;21.002;2023-02-12T17:13:46;9.60;;;5.65;;
76125;SDS011;65174;48.138;21.002;2023-02-12T17:16:49;11.95;;;7.15;;
76125;SDS011;65174;48.138;21.002;2023-02-12T17:19:52;23.67;;;11.67;;
76125;SDS011;65174;48.138;21.002;2023-02-12T17:22:55;18.45;;;9.15;;
76125;SDS011;65174;48.138;21.002;2023-02-12T17:26:00;14.40;;;7.65;;
76125;SDS011;65174;48.138;21.002;2023-02-12T17:29:02;16.45;;;6.90;;
76125;SDS011;65174;48.138;21.002;2023-02-12T17:32:06;16.10;;;6.38;;
76125;SDS011;65174;48.138;21.002;2023-02-12T17:35:10;23.17;;;6.90;;
76125;SDS011;65174;48.138;21.002;2023-02-12T17:38:11;12.88;;;6.55;;
76125;SDS011;65174;48.138;21.002;2023-02-12T17:41:14;9.18;;;6.00;;
76125;SDS011;65174;48.138;21.002;2023-02-12T17:44:16;12.35;;;5.88;;
76125;SDS011;65174;48.138;21.002;2023-02-12T17:47:18;8.98;;;5.78;;
76125;SDS011;65174;48.138;21.002;2023-02-12T17:50:20;13.20;;;6.20;;
76125;SDS011;65174;48.138;21.002;2023-02-12T17:53:23;9.52;;;5.35;;
76125;SDS011;65174;48.138;21.002;2023-02-12T17:56:26;9.10;;;5.47;;
76125;SDS011;65174;48.138;21.002;2023-02-12T17:59:28;11.60;;;5.38;;
76125;SDS011;65174;48.138;21.002;2023-02-12T18:02:30;13.05;;;6.25;;
76125;SDS011;65174;48.138;21.002;2023-02-12T18:05:33;10.53;;;5.80;;
76125;SDS011;65174;48.138;21.002;2023-02-12T18:08:40;8.55;;;5.05;;
76125;SDS011;65174;48.138;21.002;2023-02-12T18:11:44;8.07;;;4.75;;
76125;SDS011;65174;48.138;21.002;2023-02-12T18:14:46;11.43;;;5.63;;
76125;SDS011;65174;48.138;21.002;2023-02-12T18:17:48;11.50;;;5.25;;
76125;SDS011;65174;48.138;21.002;2023-02-12T18:20:50;9.33;;;6.23;;
76125;SDS011;65174;48.138;21.002;2023-02-12T18:23:52;12.05;;;6.43;;
76125;SDS011;65174;48.138;21.002;2023-02-12T18:26:55;15.10;;;7.45;;
76125;SDS011;65174;48.138;21.002;2023-02-12T18:29:58;13.25;;;7.88;;
76125;SDS011;65174;48.138;21.002;2023-02-12T18:33:00;11.80;;;7.30;;
76125;SDS011;65174;48.138;21.002;2023-02-12T18:39:09;14.90;;;6.28;;
76125;SDS011;65174;48.138;21.002;2023-02-12T18:42:11;12.15;;;6.47;;
76125;SDS011;65174;48.138;21.002;2023-02-12T18:45:13;21.38;;;10.40;;
76125;SDS011;65174;48.138;21.002;2023-02-12T18:48:15;23.45;;;10.55;;
76125;SDS011;65174;48.138;21.002;2023-02-12T18:51:21;15.43;;;8.60;;
76125;SDS011;65174;48.138;21.002;2023-02-12T18:54:25;13.77;;;7.68;;
76125;SDS011;65174;48.138;21.002;2023-02-12T18:57:27;26.10;;;11.23;;
76125;SDS011;65174;48.138;21.002;2023-02-12T19:00:30;20.75;;;11.15;;
76125;SDS011;65174;48.138;21.002;2023-02-12T19:03:32;24.92;;;13.57;;
76125;SDS011;65174;48.138;21.002;2023-02-12T19:06:42;28.20;;;14.97;;
76125;SDS011;65174;48.138;21.002;2023-02-12T19:09:46;26.05;;;14.35;;
76125;SDS011;65174;48.138;21.002;2023-02-12T19:12:49;31.67;;;18.88;;
76125;SDS011;65174;48.138;21.002;2023-02-12T19:15:51;40.83;;;19.85;;
76125;SDS011;65174;48.138;21.002;2023-02-12T19:18:54;54.22;;;21.38;;
76125;SDS011;65174;48.138;21.002;2023-02-12T19:21:59;43.07;;;19.47;;
76125;SDS011;65174;48.138;21.002;2023-02-12T19:25:01;38.45;;;16.35;;
76125;SDS011;65174;48.138;21.002;2023-02-12T19:28:05;35.22;;;17.25;;
76125;SDS011;65174;48.138;21.002;2023-02-12T19:31:11;28.92;;;15.77;;
76125;SDS011;65174;48.138;21.002;2023-02-12T19:34:20;41.00;;;16.85;;
76125;SDS011;65174;48.138;21.002;2023-02-12T19:37:23;71.67;;;26.33;;
76125;SDS011;65174;48.138;21.002;2023-02-12T19:40:26;58.75;;;25.58;;
76125;SDS011;65174;48.138;21.002;2023-02-12T19:43:28;48.50;;;23.20;;
76125;SDS011;65174;48.138;21.002;2023-02-12T19:46:30;58.22;;;25.08;;
76125;SDS011;65174;48.138;21.002;2023-02-12T19:49:33;55.58;;;24.33;;
76125;SDS011;65174;48.138;21.002;2023-02-12T19:52:35;58.30;;;24.70;;
76125;SDS011;65174;48.138;21.002;2023-02-12T19:55:38;56.67;;;25.27;;
76125;SDS011;65174;48.138;21.002;2023-02-12T19:58:40;64.68;;;26.25;;
76125;SDS011;65174;48.138;21.002;2023-02-12T20:01:43;58.30;;;23.55;;
76125;SDS011;65174;48.138;21.002;2023-02-12T20:04:46;46.42;;;21.45;;
76125;SDS011;65174;48.138;21.002;2023-02-12T20:07:48;48.87;;;22.43;;
76125;SDS011;65174;48.138;21.002;2023-02-12T20:10:50;46.08;;;21.90;;
76125;SDS011;65174;48.138;21.002;2023-02-12T20:13:52;43.65;;;19.83;;
76125;SDS011;65174;48.138;21.002;2023-02-12T20:16:55;43.85;;;18.95;;
76125;SDS011;65174;48.138;21.002;2023-02-12T20:19:59;43.30;;;18.75;;
76125;SDS011;65174;48.138;21.002;2023-02-12T20:23:01;37.00;;;16.20;;
76125;SDS011;65174;48.138;21.002;2023-02-12T20:26:04;44.17;;;19.83;;
76125;SDS011;65174;48.138;21.002;2023-02-12T20:29:07;46.55;;;23.02;;
76125;SDS011;65174;48.138;21.002;2023-02-12T20:32:10;46.63;;;21.77;;
76125;SDS011;65174;48.138;21.002;2023-02-12T20:35:13;42.20;;;21.15;;
76125;SDS011;65174;48.138;21.002;2023-02-12T20:38:16;39.03;;;19.70;;
76125;SDS011;65174;48.138;21.002;2023-02-12T20:41:18;39.17;;;18.20;;
76125;SDS011;65174;48.138;21.002;2023-02-12T20:44:21;38.92;;;19.73;;
76125;SDS011;65174;48.138;21.002;2023-02-12T20:47:23;42.55;;;20.67;;
76125;SDS011;65174;48.138;21.002;2023-02-12T20:50:29;44.72;;;21.80;;
76125;SDS011;65174;48.138;21.002;2023-02-12T20:53:32;51.87;;;23.57;;
76125;SDS011;65174;48.138;21.002;2023-02-12T20:56:35;55.65;;;24.38;;
76125;SDS011;65174;48.138;21.002;2023-02-12T20:59:38;112.03;;;38.28;;
76125;SDS011;65174;48.138;21.002;2023-02-12T21:02:41;109.60;;;39.85;;
76125;SDS011;65174;48.138;21.002;2023-02-12T21:05:43;113.53;;;40.40;;
76125;SDS011;65174;48.138;21.002;2023-02-12T21:08:45;82.50;;;32.33;;
76125;SDS011;65174;48.138;21.002;2023-02-12T21:11:47;68.05;;;29.17;;
76125;SDS011;65174;48.138;21.002;2023-02-12T21:14:49;59.15;;;27.02;;
76125;SDS011;65174;48.138;21.002;2023-02-12T21:17:52;54.60;;;24.02;;
76125;SDS011;65174;48.138;21.002;2023-02-12T21:20:58;51.78;;;23.92;;
76125;SDS011;65174;48.138;21.002;2023-02-12T21:24:04;44.10;;;21.07;;
76125;SDS011;65174;48.138;21.002;2023-02-12T21:27:07;44.97;;;20.95;;
76125;SDS011;65174;48.138;21.002;2023-02-12T21:30:10;52.40;;;22.52;;
76125;SDS011;65174;48.138;21.002;2023-02-12T21:33:12;43.47;;;18.10;;
76125;SDS011;65174;48.138;21.002;2023-02-12T21:36:15;44.75;;;17.90;;
76125;SDS011;65174;48.138;21.002;2023-02-12T21:39:24;40.87;;;18.40;;
76125;SDS011;65174;48.138;21.002;2023-02-12T21:42:28;47.67;;;20.10;;
76125;SDS011;65174;48.138;21.002;2023-02-12T21:45:31;61.22;;;25.15;;
76125;SDS011;65174;48.138;21.002;2023-02-12T21:48:33;60.38;;;23.02;;
76125;SDS011;65174;48.138;21.002;2023-02-12T21:51:38;62.53;;;24.08;;
76125;SDS011;65174;48.138;21.002;2023-02-12T21:54:41;52.17;;;21.00;;
76125;SDS011;65174;48.138;21.002;2023-02-12T21:57:43;63.35;;;23.10;;
76125;SDS011;65174;48.138;21.002;2023-02-12T22:00:47;39.58;;;18.50;;
76125;SDS011;65174;48.138;21.002;2023-02-12T22:03:51;62.00;;;21.42;;
76125;SDS011;65174;48.138;21.002;2023-02-12T22:06:53;66.60;;;23.23;;
76125;SDS011;65174;48.138;21.002;2023-02-12T22:09:57;68.77;;;24.23;;
76125;SDS011;65174;48.138;21.002;2023-02-12T22:12:59;78.93;;;23.60;;
76125;SDS011;65174;48.138;21.002;2023-02-12T22:19:15;56.95;;;20.17;;
76125;SDS011;65174;48.138;21.002;2023-02-12T22:22:17;39.35;;;16.58;;
76125;SDS011;65174;48.138;21.002;2023-02-12T22:25:19;32.77;;;14.57;;
76125;SDS011;65174;48.138;21.002;2023-02-12T22:28:22;31.15;;;16.13;;
76125;SDS011;65174;48.138;21.002;2023-02-12T22:31:26;36.40;;;17.10;;
76125;SDS011;65174;48.138;21.002;2023-02-12T22:34:31;41.58;;;18.65;;
76125;SDS011;65174;48.138;21.002;2023-02-12T22:37:33;36.92;;;17.85;;
76125;SDS011;65174;48.138;21.002;2023-02-12T22:40:35;29.50;;;15.37;;